sensor_id;sensor_type;location;lat;lon;timestamp;temperature;humidity
41262;DHT22;29629;52.532;13.352;2023-04-07T00:00:14;6.70;99.90
41262;DHT22;29629;52.532;13.352;2023-04-07T00:02:42;6.60;99.90
41262;DHT22;29629;52.532;13.352;2023-04-07T00:05:09;6.60;99.90
41262;DHT22;29629;52.532;13.352;2023-04-07T00:07:37;6.50;99.90
41262;DHT22;29629;52.532;13.352;2023-04-07T00:10:05;6.50;99.90
41262;DHT22;29629;52.532;13.352;2023-04-07T00:12:33;6.50;99.90
41262;DHT22;29629;52.532;13.352;2023-04-07T00:15:00;6.50;99.90
41262;DHT22;29629;52.532;13.352;2023-04-07T00:17:27;6.50;99.90
41262;DHT22;29629;52.532;13.352;2023-04-07T00:19:54;6.50;99.90
41262;DHT22;29629;52.532;13.352;2023-04-07T00:22:21;6.40;99.90
41262;DHT22;29629;52.532;13.352;2023-04-07T00:24:49;6.50;99.90
41262;DHT22;29629;52.532;13.352;2023-04-07T00:27:16;6.40;99.90
41262;DHT22;29629;52.532;13.352;2023-04-07T00:29:43;6.40;99.90
41262;DHT22;29629;52.532;13.352;2023-04-07T00:32:11;6.40;99.90
41262;DHT22;29629;52.532;13.352;2023-04-07T00:34:38;6.30;99.90
41262;DHT22;29629;52.532;13.352;2023-04-07T00:37:05;6.40;99.90
41262;DHT22;29629;52.532;13.352;2023-04-07T00:39:32;6.30;99.90
41262;DHT22;29629;52.532;13.352;2023-04-07T00:42:02;6.30;99.90
41262;DHT22;29629;52.532;13.352;2023-04-07T00:44:30;6.20;99.90
41262;DHT22;29629;52.532;13.352;2023-04-07T00:46:57;6.20;99.90
41262;DHT22;29629;52.532;13.352;2023-04-07T00:49:25;6.20;99.90
41262;DHT22;29629;52.532;13.352;2023-04-07T00:51:53;6.10;99.90
41262;DHT22;29629;52.532;13.352;2023-04-07T00:54:21;6.20;99.90
41262;DHT22;29629;52.532;13.352;2023-04-07T00:56:48;6.10;99.90
41262;DHT22;29629;52.532;13.352;2023-04-07T00:59:17;6.10;99.90
41262;DHT22;29629;52.532;13.352;2023-04-07T01:02:00;6.10;99.90
41262;DHT22;29629;52.532;13.352;2023-04-07T01:04:32;6.10;99.90
41262;DHT22;29629;52.532;13.352;2023-04-07T01:07:04;6.00;99.90
41262;DHT22;29629;52.532;13.352;2023-04-07T01:09:36;6.00;99.90
41262;DHT22;29629;52.532;13.352;2023-04-07T01:12:11;6.00;99.90
41262;DHT22;29629;52.532;13.352;2023-04-07T01:14:50;6.00;99.90
41262;DHT22;29629;52.532;13.352;2023-04-07T01:17:18;6.00;99.90
41262;DHT22;29629;52.532;13.352;2023-04-07T01:19:49;6.00;99.90
41262;DHT22;29629;52.532;13.352;2023-04-07T01:22:22;5.90;99.90
41262;DHT22;29629;52.532;13.352;2023-04-07T01:25:06;5.90;99.90
41262;DHT22;29629;52.532;13.352;2023-04-07T01:27:42;5.90;99.90
41262;DHT22;29629;52.532;13.352;2023-04-07T01:30:17;5.90;99.90
41262;DHT22;29629;52.532;13.352;2023-04-07T01:32:49;5.90;99.90
41262;DHT22;29629;52.532;13.352;2023-04-07T01:35:17;5.90;99.90
41262;DHT22;29629;52.532;13.352;2023-04-07T01:37:45;5.80;99.90
41262;DHT22;29629;52.532;13.352;2023-04-07T01:40:14;5.80;99.90
41262;DHT22;29629;52.532;13.352;2023-04-07T01:42:42;5.80;99.90
41262;DHT22;29629;52.532;13.352;2023-04-07T01:45:10;5.80;99.90
41262;DHT22;29629;52.532;13.352;2023-04-07T01:47:39;5.80;99.90
41262;DHT22;29629;52.532;13.352;2023-04-07T01:50:07;5.80;99.90
41262;DHT22;29629;52.532;13.352;2023-04-07T01:52:35;5.80;99.90
41262;DHT22;29629;52.532;13.352;2023-04-07T01:55:03;5.70;99.90
41262;DHT22;29629;52.532;13.352;2023-04-07T01:57:30;5.70;99.90
41262;DHT22;29629;52.532;13.352;2023-04-07T01:59:58;5.70;99.90
41262;DHT22;29629;52.532;13.352;2023-04-07T02:02:25;5.60;99.90
41262;DHT22;29629;52.532;13.352;2023-04-07T02:04:54;5.60;99.90
41262;DHT22;29629;52.532;13.352;2023-04-07T02:07:28;5.70;99.90
41262;DHT22;29629;52.532;13.352;2023-04-07T02:09:59;5.70;99.90
41262;DHT22;29629;52.532;13.352;2023-04-07T02:12:28;5.60;99.90
41262;DHT22;29629;52.532;13.352;2023-04-07T02:14:57;5.60;99.90
41262;DHT22;29629;52.532;13.352;2023-04-07T02:17:26;5.60;99.90
41262;DHT22;29629;52.532;13.352;2023-04-07T02:19:55;5.60;99.90
41262;DHT22;29629;52.532;13.352;2023-04-07T02:22:23;5.60;99.90
41262;DHT22;29629;52.532;13.352;2023-04-07T02:24:50;5.50;99.90
41262;DHT22;29629;52.532;13.352;2023-04-07T02:27:17;5.50;99.90
41262;DHT22;29629;52.532;13.352;2023-04-07T02:29:45;5.50;99.90
41262;DHT22;29629;52.532;13.352;2023-04-07T02:32:12;5.50;99.90
41262;DHT22;29629;52.532;13.352;2023-04-07T02:34:39;5.40;99.90
41262;DHT22;29629;52.532;13.352;2023-04-07T02:37:08;5.30;99.90
41262;DHT22;29629;52.532;13.352;2023-04-07T02:39:34;5.30;99.90
41262;DHT22;29629;52.532;13.352;2023-04-07T02:42:01;5.30;99.90
41262;DHT22;29629;52.532;13.352;2023-04-07T02:44:28;5.30;99.90
41262;DHT22;29629;52.532;13.352;2023-04-07T02:46:55;5.20;99.90
41262;DHT22;29629;52.532;13.352;2023-04-07T02:49:22;5.20;99.90
41262;DHT22;29629;52.532;13.352;2023-04-07T02:51:49;5.20;99.90
41262;DHT22;29629;52.532;13.352;2023-04-07T02:54:17;5.30;99.90
41262;DHT22;29629;52.532;13.352;2023-04-07T02:56:44;5.30;99.90
41262;DHT22;29629;52.532;13.352;2023-04-07T02:59:11;5.20;99.90
41262;DHT22;29629;52.532;13.352;2023-04-07T03:01:38;5.20;99.90
41262;DHT22;29629;52.532;13.352;2023-04-07T03:04:05;5.20;99.90
41262;DHT22;29629;52.532;13.352;2023-04-07T03:06:32;5.20;99.90
41262;DHT22;29629;52.532;13.352;2023-04-07T03:08:59;5.20;99.90
41262;DHT22;29629;52.532;13.352;2023-04-07T03:11:27;5.20;99.90
41262;DHT22;29629;52.532;13.352;2023-04-07T03:13:54;5.20;99.90
41262;DHT22;29629;52.532;13.352;2023-04-07T03:16:21;5.10;99.90
41262;DHT22;29629;52.532;13.352;2023-04-07T03:18:48;5.10;99.90
41262;DHT22;29629;52.532;13.352;2023-04-07T03:21:15;5.10;99.90
41262;DHT22;29629;52.532;13.352;2023-04-07T03:23:42;5.10;99.90
41262;DHT22;29629;52.532;13.352;2023-04-07T03:26:09;5.10;99.90
41262;DHT22;29629;52.532;13.352;2023-04-07T03:28:37;5.10;99.90
41262;DHT22;29629;52.532;13.352;2023-04-07T03:31:04;5.10;99.90
41262;DHT22;29629;52.532;13.352;2023-04-07T03:33:31;5.10;99.90
41262;DHT22;29629;52.532;13.352;2023-04-07T03:35:58;5.10;99.90
41262;DHT22;29629;52.532;13.352;2023-04-07T03:38:25;5.10;99.90
41262;DHT22;29629;52.532;13.352;2023-04-07T03:40:52;5.10;99.90
41262;DHT22;29629;52.532;13.352;2023-04-07T03:43:19;5.20;99.90
41262;DHT22;29629;52.532;13.352;2023-04-07T03:45:47;5.20;99.90
41262;DHT22;29629;52.532;13.352;2023-04-07T03:48:14;5.20;99.90
41262;DHT22;29629;52.532;13.352;2023-04-07T03:50:41;5.20;99.90
41262;DHT22;29629;52.532;13.352;2023-04-07T03:53:08;5.10;99.90
41262;DHT22;29629;52.532;13.352;2023-04-07T03:55:36;5.20;99.90
41262;DHT22;29629;52.532;13.352;2023-04-07T03:58:03;5.20;99.90
41262;DHT22;29629;52.532;13.352;2023-04-07T04:00:30;5.20;99.90
41262;DHT22;29629;52.532;13.352;2023-04-07T04:02:59;5.20;99.90
41262;DHT22;29629;52.532;13.352;2023-04-07T04:05:26;5.30;99.90
41262;DHT22;29629;52.532;13.352;2023-04-07T04:07:53;5.20;99.90
41262;DHT22;29629;52.532;13.352;2023-04-07T04:10:20;5.20;99.90
41262;DHT22;29629;52.532;13.352;2023-04-07T04:12:47;5.20;99.90
41262;DHT22;29629;52.532;13.352;2023-04-07T04:15:15;5.30;99.90
41262;DHT22;29629;52.532;13.352;2023-04-07T04:17:42;5.20;99.90
41262;DHT22;29629;52.532;13.352;2023-04-07T04:20:11;5.30;99.90
41262;DHT22;29629;52.532;13.352;2023-04-07T04:22:38;5.20;99.90
41262;DHT22;29629;52.532;13.352;2023-04-07T04:25:06;5.20;99.90
41262;DHT22;29629;52.532;13.352;2023-04-07T04:27:33;5.10;99.90
41262;DHT22;29629;52.532;13.352;2023-04-07T04:30:00;5.20;99.90
41262;DHT22;29629;52.532;13.352;2023-04-07T04:32:27;5.20;99.90
41262;DHT22;29629;52.532;13.352;2023-04-07T04:34:54;5.20;99.90
41262;DHT22;29629;52.532;13.352;2023-04-07T04:37:22;5.20;99.90
41262;DHT22;29629;52.532;13.352;2023-04-07T04:39:49;5.20;99.90
41262;DHT22;29629;52.532;13.352;2023-04-07T04:42:16;5.10;99.90
41262;DHT22;29629;52.532;13.352;2023-04-07T04:44:43;5.10;99.90
41262;DHT22;29629;52.532;13.352;2023-04-07T04:47:09;5.10;99.90
41262;DHT22;29629;52.532;13.352;2023-04-07T04:49:36;5.00;99.90
41262;DHT22;29629;52.532;13.352;2023-04-07T04:52:03;5.10;99.90
41262;DHT22;29629;52.532;13.352;2023-04-07T04:54:32;5.00;99.90
41262;DHT22;29629;52.532;13.352;2023-04-07T04:56:59;5.00;99.90
41262;DHT22;29629;52.532;13.352;2023-04-07T04:59:26;5.00;99.90
41262;DHT22;29629;52.532;13.352;2023-04-07T05:01:53;5.00;99.90
41262;DHT22;29629;52.532;13.352;2023-04-07T05:04:20;5.10;99.90
41262;DHT22;29629;52.532;13.352;2023-04-07T05:06:47;5.00;99.90
41262;DHT22;29629;52.532;13.352;2023-04-07T05:09:13;5.00;99.90
41262;DHT22;29629;52.532;13.352;2023-04-07T05:11:43;5.00;99.90
41262;DHT22;29629;52.532;13.352;2023-04-07T05:14:10;5.00;99.90
41262;DHT22;29629;52.532;13.352;2023-04-07T05:16:37;5.00;99.90
41262;DHT22;29629;52.532;13.352;2023-04-07T05:19:04;5.00;99.90
41262;DHT22;29629;52.532;13.352;2023-04-07T05:21:30;5.00;99.90
41262;DHT22;29629;52.532;13.352;2023-04-07T05:23:57;5.10;99.90
41262;DHT22;29629;52.532;13.352;2023-04-07T05:26:24;5.20;99.90
41262;DHT22;29629;52.532;13.352;2023-04-07T05:28:53;5.20;99.90
41262;DHT22;29629;52.532;13.352;2023-04-07T05:31:20;5.20;99.90
41262;DHT22;29629;52.532;13.352;2023-04-07T05:33:46;5.20;99.90
41262;DHT22;29629;52.532;13.352;2023-04-07T05:36:14;5.20;99.90
41262;DHT22;29629;52.532;13.352;2023-04-07T05:38:41;5.30;99.90
41262;DHT22;29629;52.532;13.352;2023-04-07T05:41:08;5.20;99.90
41262;DHT22;29629;52.532;13.352;2023-04-07T05:43:35;5.20;99.90
41262;DHT22;29629;52.532;13.352;2023-04-07T05:46:04;5.20;99.90
41262;DHT22;29629;52.532;13.352;2023-04-07T05:48:31;5.10;99.90
41262;DHT22;29629;52.532;13.352;2023-04-07T05:50:57;5.30;99.90
41262;DHT22;29629;52.532;13.352;2023-04-07T05:53:24;5.40;99.90
41262;DHT22;29629;52.532;13.352;2023-04-07T05:55:51;5.50;99.90
41262;DHT22;29629;52.532;13.352;2023-04-07T05:58:18;5.50;99.90
41262;DHT22;29629;52.532;13.352;2023-04-07T06:00:45;5.60;99.90
41262;DHT22;29629;52.532;13.352;2023-04-07T06:03:13;5.70;99.90
41262;DHT22;29629;52.532;13.352;2023-04-07T06:05:40;5.80;99.90
41262;DHT22;29629;52.532;13.352;2023-04-07T06:08:08;5.90;99.90
41262;DHT22;29629;52.532;13.352;2023-04-07T06:10:35;5.80;99.90
41262;DHT22;29629;52.532;13.352;2023-04-07T06:13:02;5.90;99.90
41262;DHT22;29629;52.532;13.352;2023-04-07T06:15:29;5.90;99.90
41262;DHT22;29629;52.532;13.352;2023-04-07T06:17:56;5.90;99.90
41262;DHT22;29629;52.532;13.352;2023-04-07T06:20:24;6.00;99.90
41262;DHT22;29629;52.532;13.352;2023-04-07T06:22:52;6.10;99.90
41262;DHT22;29629;52.532;13.352;2023-04-07T06:25:19;6.20;99.90
41262;DHT22;29629;52.532;13.352;2023-04-07T06:27:46;6.20;99.90
41262;DHT22;29629;52.532;13.352;2023-04-07T06:30:13;6.20;99.90
41262;DHT22;29629;52.532;13.352;2023-04-07T06:32:41;6.20;99.90
41262;DHT22;29629;52.532;13.352;2023-04-07T06:35:08;6.20;99.90
41262;DHT22;29629;52.532;13.352;2023-04-07T06:37:36;6.10;99.90
41262;DHT22;29629;52.532;13.352;2023-04-07T06:40:05;6.10;99.90
41262;DHT22;29629;52.532;13.352;2023-04-07T06:42:34;6.10;99.90
41262;DHT22;29629;52.532;13.352;2023-04-07T06:45:01;6.20;99.90
41262;DHT22;29629;52.532;13.352;2023-04-07T06:47:28;6.30;99.90
41262;DHT22;29629;52.532;13.352;2023-04-07T06:49:55;6.30;99.90
41262;DHT22;29629;52.532;13.352;2023-04-07T06:52:22;6.30;99.90
41262;DHT22;29629;52.532;13.352;2023-04-07T06:54:50;6.40;99.90
41262;DHT22;29629;52.532;13.352;2023-04-07T06:57:17;6.40;99.90
41262;DHT22;29629;52.532;13.352;2023-04-07T06:59:45;6.50;99.90
41262;DHT22;29629;52.532;13.352;2023-04-07T07:02:12;6.50;99.90
41262;DHT22;29629;52.532;13.352;2023-04-07T07:04:38;6.50;99.90
41262;DHT22;29629;52.532;13.352;2023-04-07T07:07:06;6.60;99.90
41262;DHT22;29629;52.532;13.352;2023-04-07T07:09:33;6.60;99.90
41262;DHT22;29629;52.532;13.352;2023-04-07T07:12:01;6.70;99.90
41262;DHT22;29629;52.532;13.352;2023-04-07T07:14:28;6.80;99.90
41262;DHT22;29629;52.532;13.352;2023-04-07T07:16:55;6.90;99.90
41262;DHT22;29629;52.532;13.352;2023-04-07T07:19:22;7.00;99.90
41262;DHT22;29629;52.532;13.352;2023-04-07T07:21:49;7.00;99.90
41262;DHT22;29629;52.532;13.352;2023-04-07T07:24:16;7.10;99.90
41262;DHT22;29629;52.532;13.352;2023-04-07T07:26:43;7.20;99.90
41262;DHT22;29629;52.532;13.352;2023-04-07T07:29:11;7.40;99.90
41262;DHT22;29629;52.532;13.352;2023-04-07T07:31:38;7.40;99.90
41262;DHT22;29629;52.532;13.352;2023-04-07T07:34:05;7.50;99.90
41262;DHT22;29629;52.532;13.352;2023-04-07T07:36:32;7.60;99.90
41262;DHT22;29629;52.532;13.352;2023-04-07T07:38:59;7.70;99.90
41262;DHT22;29629;52.532;13.352;2023-04-07T07:41:26;7.90;99.90
41262;DHT22;29629;52.532;13.352;2023-04-07T07:43:53;8.00;99.90
41262;DHT22;29629;52.532;13.352;2023-04-07T07:46:21;8.20;99.90
41262;DHT22;29629;52.532;13.352;2023-04-07T07:48:50;8.40;99.90
41262;DHT22;29629;52.532;13.352;2023-04-07T07:51:17;8.40;99.90
41262;DHT22;29629;52.532;13.352;2023-04-07T07:53:44;8.60;99.90
41262;DHT22;29629;52.532;13.352;2023-04-07T07:56:12;8.70;99.90
41262;DHT22;29629;52.532;13.352;2023-04-07T07:58:39;8.90;99.90
41262;DHT22;29629;52.532;13.352;2023-04-07T08:01:06;8.90;99.90
41262;DHT22;29629;52.532;13.352;2023-04-07T08:03:35;8.80;99.90
41262;DHT22;29629;52.532;13.352;2023-04-07T08:06:02;8.70;99.90
41262;DHT22;29629;52.532;13.352;2023-04-07T08:08:29;8.60;99.90
41262;DHT22;29629;52.532;13.352;2023-04-07T08:10:56;8.40;99.90
41262;DHT22;29629;52.532;13.352;2023-04-07T08:13:22;8.40;99.90
41262;DHT22;29629;52.532;13.352;2023-04-07T08:15:49;8.40;99.90
41262;DHT22;29629;52.532;13.352;2023-04-07T08:18:16;8.40;99.90
41262;DHT22;29629;52.532;13.352;2023-04-07T08:20:45;8.40;99.90
41262;DHT22;29629;52.532;13.352;2023-04-07T08:23:12;8.70;99.90
41262;DHT22;29629;52.532;13.352;2023-04-07T08:25:39;9.00;99.90
41262;DHT22;29629;52.532;13.352;2023-04-07T08:28:06;9.20;99.90
41262;DHT22;29629;52.532;13.352;2023-04-07T08:30:33;9.30;99.90
41262;DHT22;29629;52.532;13.352;2023-04-07T08:33:00;9.40;99.90
41262;DHT22;29629;52.532;13.352;2023-04-07T08:35:27;9.30;99.90
41262;DHT22;29629;52.532;13.352;2023-04-07T08:37:55;9.60;99.90
41262;DHT22;29629;52.532;13.352;2023-04-07T08:40:22;9.90;99.90
41262;DHT22;29629;52.532;13.352;2023-04-07T08:42:49;9.80;99.90
41262;DHT22;29629;52.532;13.352;2023-04-07T08:45:17;9.70;99.90
41262;DHT22;29629;52.532;13.352;2023-04-07T08:47:45;9.80;99.90
41262;DHT22;29629;52.532;13.352;2023-04-07T08:50:16;9.80;99.90
41262;DHT22;29629;52.532;13.352;2023-04-07T08:52:44;9.90;99.90
41262;DHT22;29629;52.532;13.352;2023-04-07T08:55:13;9.80;99.90
41262;DHT22;29629;52.532;13.352;2023-04-07T08:57:41;9.70;99.90
41262;DHT22;29629;52.532;13.352;2023-04-07T09:00:11;9.70;99.90
41262;DHT22;29629;52.532;13.352;2023-04-07T09:02:40;9.60;99.90
41262;DHT22;29629;52.532;13.352;2023-04-07T09:05:09;9.50;99.90
41262;DHT22;29629;52.532;13.352;2023-04-07T09:07:38;9.40;99.90
41262;DHT22;29629;52.532;13.352;2023-04-07T09:10:06;9.20;99.90
41262;DHT22;29629;52.532;13.352;2023-04-07T09:12:35;9.30;99.90
41262;DHT22;29629;52.532;13.352;2023-04-07T09:15:04;9.40;99.90
41262;DHT22;29629;52.532;13.352;2023-04-07T09:17:31;9.40;99.90
41262;DHT22;29629;52.532;13.352;2023-04-07T09:19:59;9.30;99.90
41262;DHT22;29629;52.532;13.352;2023-04-07T09:22:37;9.30;99.90
41262;DHT22;29629;52.532;13.352;2023-04-07T09:25:16;9.30;99.90
41262;DHT22;29629;52.532;13.352;2023-04-07T09:27:58;9.30;99.90
41262;DHT22;29629;52.532;13.352;2023-04-07T09:30:27;9.10;99.90
41262;DHT22;29629;52.532;13.352;2023-04-07T09:32:55;8.90;99.90
41262;DHT22;29629;52.532;13.352;2023-04-07T09:35:22;9.00;99.90
41262;DHT22;29629;52.532;13.352;2023-04-07T09:38:03;8.90;99.90
41262;DHT22;29629;52.532;13.352;2023-04-07T09:40:30;8.80;99.90
41262;DHT22;29629;52.532;13.352;2023-04-07T09:42:58;8.90;99.90
41262;DHT22;29629;52.532;13.352;2023-04-07T09:45:27;8.80;99.90
41262;DHT22;29629;52.532;13.352;2023-04-07T09:47:54;8.70;99.90
41262;DHT22;29629;52.532;13.352;2023-04-07T09:50:31;8.70;99.90
41262;DHT22;29629;52.532;13.352;2023-04-07T09:53:00;8.60;99.90
41262;DHT22;29629;52.532;13.352;2023-04-07T09:55:28;8.70;99.90
41262;DHT22;29629;52.532;13.352;2023-04-07T09:57:55;8.70;99.90
41262;DHT22;29629;52.532;13.352;2023-04-07T10:00:24;8.80;99.90
41262;DHT22;29629;52.532;13.352;2023-04-07T10:02:51;8.80;99.90
41262;DHT22;29629;52.532;13.352;2023-04-07T10:05:19;8.80;99.90
41262;DHT22;29629;52.532;13.352;2023-04-07T10:07:47;8.80;99.90
41262;DHT22;29629;52.532;13.352;2023-04-07T10:10:14;8.90;99.90
41262;DHT22;29629;52.532;13.352;2023-04-07T10:12:42;8.90;99.90
41262;DHT22;29629;52.532;13.352;2023-04-07T10:15:11;9.00;99.90
41262;DHT22;29629;52.532;13.352;2023-04-07T10:17:44;9.00;99.90
41262;DHT22;29629;52.532;13.352;2023-04-07T10:20:12;9.00;99.90
41262;DHT22;29629;52.532;13.352;2023-04-07T10:22:41;9.00;99.90
41262;DHT22;29629;52.532;13.352;2023-04-07T10:25:12;9.00;99.90
41262;DHT22;29629;52.532;13.352;2023-04-07T10:27:44;8.90;99.90
41262;DHT22;29629;52.532;13.352;2023-04-07T10:30:21;9.00;99.90
41262;DHT22;29629;52.532;13.352;2023-04-07T10:32:53;8.90;99.90
41262;DHT22;29629;52.532;13.352;2023-04-07T10:35:21;8.80;99.90
41262;DHT22;29629;52.532;13.352;2023-04-07T10:38:09;8.80;99.90
41262;DHT22;29629;52.532;13.352;2023-04-07T10:40:38;8.90;99.90
41262;DHT22;29629;52.532;13.352;2023-04-07T10:43:06;8.90;99.90
41262;DHT22;29629;52.532;13.352;2023-04-07T10:45:54;8.90;99.90
41262;DHT22;29629;52.532;13.352;2023-04-07T10:48:28;8.90;99.90
41262;DHT22;29629;52.532;13.352;2023-04-07T10:51:16;8.90;99.90
41262;DHT22;29629;52.532;13.352;2023-04-07T10:54:17;9.10;99.90
41262;DHT22;29629;52.532;13.352;2023-04-07T10:57:12;9.30;99.90
41262;DHT22;29629;52.532;13.352;2023-04-07T10:59:41;9.30;99.90
41262;DHT22;29629;52.532;13.352;2023-04-07T11:02:37;9.50;99.90
41262;DHT22;29629;52.532;13.352;2023-04-07T11:05:06;9.40;99.90
41262;DHT22;29629;52.532;13.352;2023-04-07T11:07:47;9.30;99.90
41262;DHT22;29629;52.532;13.352;2023-04-07T11:10:15;9.30;99.90
41262;DHT22;29629;52.532;13.352;2023-04-07T11:12:44;9.10;99.90
41262;DHT22;29629;52.532;13.352;2023-04-07T11:15:23;9.20;99.90
41262;DHT22;29629;52.532;13.352;2023-04-07T11:18:05;9.20;99.90
41262;DHT22;29629;52.532;13.352;2023-04-07T11:20:45;9.10;99.90
41262;DHT22;29629;52.532;13.352;2023-04-07T11:23:13;9.20;99.90
41262;DHT22;29629;52.532;13.352;2023-04-07T11:25:42;9.20;99.90
41262;DHT22;29629;52.532;13.352;2023-04-07T11:28:11;9.20;99.90
41262;DHT22;29629;52.532;13.352;2023-04-07T11:30:44;9.20;99.90
41262;DHT22;29629;52.532;13.352;2023-04-07T11:33:14;9.10;99.90
41262;DHT22;29629;52.532;13.352;2023-04-07T11:35:48;9.20;99.90
41262;DHT22;29629;52.532;13.352;2023-04-07T11:38:16;9.20;99.90
41262;DHT22;29629;52.532;13.352;2023-04-07T11:40:44;9.20;99.90
41262;DHT22;29629;52.532;13.352;2023-04-07T11:43:18;9.20;99.90
41262;DHT22;29629;52.532;13.352;2023-04-07T11:45:46;9.30;99.90
41262;DHT22;29629;52.532;13.352;2023-04-07T11:48:25;9.30;99.90
41262;DHT22;29629;52.532;13.352;2023-04-07T11:50:54;9.30;99.90
41262;DHT22;29629;52.532;13.352;2023-04-07T11:53:25;9.30;99.90
41262;DHT22;29629;52.532;13.352;2023-04-07T11:56:03;9.20;99.90
41262;DHT22;29629;52.532;13.352;2023-04-07T11:58:32;9.10;99.90
41262;DHT22;29629;52.532;13.352;2023-04-07T12:01:00;9.10;99.90
41262;DHT22;29629;52.532;13.352;2023-04-07T12:03:30;9.00;99.90
41262;DHT22;29629;52.532;13.352;2023-04-07T12:05:59;8.80;99.90
41262;DHT22;29629;52.532;13.352;2023-04-07T12:08:39;8.80;99.90
41262;DHT22;29629;52.532;13.352;2023-04-07T12:11:07;8.70;99.90
41262;DHT22;29629;52.532;13.352;2023-04-07T12:13:35;8.60;99.90
41262;DHT22;29629;52.532;13.352;2023-04-07T12:16:02;8.70;99.90
41262;DHT22;29629;52.532;13.352;2023-04-07T12:18:30;8.70;99.90
41262;DHT22;29629;52.532;13.352;2023-04-07T12:21:02;8.70;99.90
41262;DHT22;29629;52.532;13.352;2023-04-07T12:23:30;8.80;99.90
41262;DHT22;29629;52.532;13.352;2023-04-07T12:25:56;8.90;99.90
41262;DHT22;29629;52.532;13.352;2023-04-07T12:28:23;8.90;99.90
41262;DHT22;29629;52.532;13.352;2023-04-07T12:30:50;8.90;99.90
41262;DHT22;29629;52.532;13.352;2023-04-07T12:33:18;8.70;99.90
41262;DHT22;29629;52.532;13.352;2023-04-07T12:35:45;8.70;99.90
41262;DHT22;29629;52.532;13.352;2023-04-07T12:38:13;8.70;99.90
41262;DHT22;29629;52.532;13.352;2023-04-07T12:40:40;8.70;99.90
41262;DHT22;29629;52.532;13.352;2023-04-07T12:43:07;8.60;99.90
41262;DHT22;29629;52.532;13.352;2023-04-07T12:45:34;8.60;99.90
41262;DHT22;29629;52.532;13.352;2023-04-07T12:48:02;8.60;99.90
41262;DHT22;29629;52.532;13.352;2023-04-07T12:50:29;8.70;99.90
41262;DHT22;29629;52.532;13.352;2023-04-07T12:52:57;8.70;99.90
41262;DHT22;29629;52.532;13.352;2023-04-07T12:55:29;8.80;99.90
41262;DHT22;29629;52.532;13.352;2023-04-07T12:57:58;8.80;99.90
41262;DHT22;29629;52.532;13.352;2023-04-07T13:00:24;8.60;99.90
41262;DHT22;29629;52.532;13.352;2023-04-07T13:02:51;8.50;99.90
41262;DHT22;29629;52.532;13.352;2023-04-07T13:05:18;8.40;99.90
41262;DHT22;29629;52.532;13.352;2023-04-07T13:07:46;8.50;99.90
41262;DHT22;29629;52.532;13.352;2023-04-07T13:10:13;8.60;99.90
41262;DHT22;29629;52.532;13.352;2023-04-07T13:12:41;8.50;99.90
41262;DHT22;29629;52.532;13.352;2023-04-07T13:15:08;8.40;99.90
41262;DHT22;29629;52.532;13.352;2023-04-07T13:17:35;8.50;99.90
41262;DHT22;29629;52.532;13.352;2023-04-07T13:20:03;8.60;99.90
41262;DHT22;29629;52.532;13.352;2023-04-07T13:22:30;8.50;99.90
41262;DHT22;29629;52.532;13.352;2023-04-07T13:24:57;8.50;99.90
41262;DHT22;29629;52.532;13.352;2023-04-07T13:27:24;8.50;99.90
41262;DHT22;29629;52.532;13.352;2023-04-07T13:29:53;8.60;99.90
41262;DHT22;29629;52.532;13.352;2023-04-07T13:32:20;8.50;99.90
41262;DHT22;29629;52.532;13.352;2023-04-07T13:34:48;8.60;99.90
41262;DHT22;29629;52.532;13.352;2023-04-07T13:37:15;8.60;99.90
41262;DHT22;29629;52.532;13.352;2023-04-07T13:39:44;8.60;99.90
41262;DHT22;29629;52.532;13.352;2023-04-07T13:42:13;8.40;99.90
41262;DHT22;29629;52.532;13.352;2023-04-07T13:44:42;8.30;99.90
41262;DHT22;29629;52.532;13.352;2023-04-07T13:47:12;8.30;99.90
41262;DHT22;29629;52.532;13.352;2023-04-07T13:49:44;8.20;99.90
41262;DHT22;29629;52.532;13.352;2023-04-07T13:52:14;8.10;99.90
41262;DHT22;29629;52.532;13.352;2023-04-07T13:54:41;8.10;99.90
41262;DHT22;29629;52.532;13.352;2023-04-07T13:57:08;8.10;99.90
41262;DHT22;29629;52.532;13.352;2023-04-07T13:59:35;8.10;99.90
41262;DHT22;29629;52.532;13.352;2023-04-07T14:02:02;8.10;99.90
41262;DHT22;29629;52.532;13.352;2023-04-07T14:04:30;7.90;99.90
41262;DHT22;29629;52.532;13.352;2023-04-07T14:06:57;8.00;99.90
41262;DHT22;29629;52.532;13.352;2023-04-07T14:09:24;8.10;99.90
41262;DHT22;29629;52.532;13.352;2023-04-07T14:11:51;8.10;99.90
41262;DHT22;29629;52.532;13.352;2023-04-07T14:14:18;8.10;99.90
41262;DHT22;29629;52.532;13.352;2023-04-07T14:16:45;8.10;99.90
41262;DHT22;29629;52.532;13.352;2023-04-07T14:19:12;8.10;99.90
41262;DHT22;29629;52.532;13.352;2023-04-07T14:21:40;8.10;99.90
41262;DHT22;29629;52.532;13.352;2023-04-07T14:24:07;8.10;99.90
41262;DHT22;29629;52.532;13.352;2023-04-07T14:26:34;8.10;99.90
41262;DHT22;29629;52.532;13.352;2023-04-07T14:29:01;8.10;99.90
41262;DHT22;29629;52.532;13.352;2023-04-07T14:31:28;8.00;99.90
41262;DHT22;29629;52.532;13.352;2023-04-07T14:33:55;8.00;99.90
41262;DHT22;29629;52.532;13.352;2023-04-07T14:36:22;8.00;99.90
41262;DHT22;29629;52.532;13.352;2023-04-07T14:38:50;8.00;99.90
41262;DHT22;29629;52.532;13.352;2023-04-07T14:41:18;8.00;99.90
41262;DHT22;29629;52.532;13.352;2023-04-07T14:43:45;8.00;99.90
41262;DHT22;29629;52.532;13.352;2023-04-07T14:46:15;8.00;99.90
41262;DHT22;29629;52.532;13.352;2023-04-07T14:48:44;8.10;99.90
41262;DHT22;29629;52.532;13.352;2023-04-07T14:51:11;7.90;99.90
41262;DHT22;29629;52.532;13.352;2023-04-07T14:53:39;7.80;99.90
41262;DHT22;29629;52.532;13.352;2023-04-07T14:56:09;7.80;99.90
41262;DHT22;29629;52.532;13.352;2023-04-07T14:58:36;7.90;99.90
41262;DHT22;29629;52.532;13.352;2023-04-07T15:01:03;7.90;99.90
41262;DHT22;29629;52.532;13.352;2023-04-07T15:03:30;7.90;99.90
41262;DHT22;29629;52.532;13.352;2023-04-07T15:05:57;7.90;99.90
41262;DHT22;29629;52.532;13.352;2023-04-07T15:08:24;7.90;99.90
41262;DHT22;29629;52.532;13.352;2023-04-07T15:10:51;7.90;99.90
41262;DHT22;29629;52.532;13.352;2023-04-07T15:13:19;7.80;99.90
41262;DHT22;29629;52.532;13.352;2023-04-07T15:15:46;7.80;99.90
41262;DHT22;29629;52.532;13.352;2023-04-07T15:18:13;7.90;99.90
41262;DHT22;29629;52.532;13.352;2023-04-07T15:20:40;7.90;99.90
41262;DHT22;29629;52.532;13.352;2023-04-07T15:23:07;7.80;99.90
41262;DHT22;29629;52.532;13.352;2023-04-07T15:25:34;7.80;99.90
41262;DHT22;29629;52.532;13.352;2023-04-07T15:28:01;7.70;99.90
41262;DHT22;29629;52.532;13.352;2023-04-07T15:30:29;7.70;99.90
41262;DHT22;29629;52.532;13.352;2023-04-07T15:32:57;7.60;99.90
41262;DHT22;29629;52.532;13.352;2023-04-07T15:35:24;7.70;99.90
41262;DHT22;29629;52.532;13.352;2023-04-07T15:37:51;7.60;99.90